Historique des stations

Retrouvez les conditions météo en temps réel en cliquant ici...

Station météo de Les Ormes

Altitude de la station : 76 m







Données météorologiques pour le 20/10/2020
Date
Heure
Températures Humidité Point de rosée Vitesse
du vent
Direction Rafales Windchill Pression Pluviométrie
Cumul
Date
Heure
Températures Humidité Point de rosée Vitesse
du vent
Direction Rafales Windchill Pression Pluviométrie
Cumul
20/10/2020 18:4416.6 °C84 %13.9 °C6 km/hNO26 km/h16.7 1004 hPa-
20/10/2020 18:2916.8 °C83 %13.9 °C-NO26 km/h16.7 1004 hPa-
20/10/2020 18:1416.9 °C82 %13.9 °C6 km/hO26 km/h17.2 1004 hPa-
20/10/2020 17:5917.0 °C82 %13.9 °C2 km/hONO26 km/h17.2 1005 hPa-
20/10/2020 17:4417.1 °C82 %13.9 °C8 km/hONO26 km/h17.2 1005 hPa-
20/10/2020 17:2917.3 °C81 %13.9 °C6 km/hNO26 km/h17.2 1005 hPa-
20/10/2020 17:1417.5 °C80 %13.9 °C6 km/hNNO26 km/h17.8 1006 hPa-
20/10/2020 16:5917.7 °C79 %13.9 °C6 km/hNO26 km/h17.8 1006 hPa-
20/10/2020 16:4417.7 °C79 %13.9 °C6 km/hO26 km/h17.8 1006 hPa-
20/10/2020 16:2917.6 °C80 %13.9 °C3 km/hNO26 km/h17.8 1006 hPa-
20/10/2020 16:1417.7 °C80 %14.4 °C16 km/hONO26 km/h16.1 1006 hPa-
20/10/2020 16:0017.6 °C80 %13.9 °C6 km/hONO26 km/h17.8 1006 hPa-
20/10/2020 15:4517.2 °C80 %13.9 °C6 km/hO26 km/h17.2 1006 hPa-
20/10/2020 15:3017.0 °C80 %13.3 °C10 km/hONO24 km/h17.2 1006 hPa-
20/10/2020 15:1517.1 °C80 %13.3 °C5 km/hONO24 km/h17.2 1006 hPa-
20/10/2020 15:0017.0 °C80 %13.3 °C10 km/hONO24 km/h17.2 1007 hPa-
20/10/2020 14:4517.0 °C79 %13.3 °C13 km/hO24 km/h16.7 1007 hPa-
20/10/2020 14:3017.1 °C79 %13.3 °C8 km/hNO24 km/h17.2 1007 hPa-
20/10/2020 14:1517.1 °C79 %13.3 °C13 km/hO24 km/h16.7 1007 hPa-
20/10/2020 14:0017.0 °C79 %13.3 °C5 km/hNO24 km/h17.2 1007 hPa-
20/10/2020 13:4516.9 °C79 %13.3 °C6 km/hNO24 km/h17.2 1007 hPa-
20/10/2020 13:2916.8 °C79 %13.3 °C11 km/hNO24 km/h16.1 1008 hPa-
20/10/2020 13:1416.6 °C79 %12.8 °C14 km/hO24 km/h15.6 1008 hPa-
20/10/2020 12:5916.4 °C79 %12.8 °C19 km/hONO24 km/h14.4 1008 hPa-
20/10/2020 12:4416.4 °C79 %12.8 °C10 km/hNO24 km/h16.7 1008 hPa-
20/10/2020 12:2916.4 °C80 %12.8 °C8 km/hONO24 km/h16.7 1008 hPa-
20/10/2020 12:1416.2 °C80 %12.8 °C6 km/hO24 km/h16.1 1008 hPa-
20/10/2020 11:5915.9 °C81 %12.8 °C11 km/hNO23 km/h15.6 1008 hPa-
20/10/2020 11:4415.8 °C81 %12.8 °C13 km/hNO23 km/h15.6 1008 hPa-
20/10/2020 11:2916.0 °C79 %12.2 °C11 km/hNO23 km/h15.6 1008 hPa-
20/10/2020 11:1415.9 °C79 %12.2 °C5 km/hNO23 km/h16.1 1008 hPa-
20/10/2020 10:5915.9 °C79 %12.2 °C3 km/hONO23 km/h16.1 1008 hPa-
20/10/2020 10:4415.9 °C79 %12.2 °C3 km/hNO23 km/h16.1 1008 hPa-
20/10/2020 10:2915.9 °C78 %12.2 °C5 km/hONO23 km/h16.1 1008 hPa-
20/10/2020 10:1416.0 °C78 %12.2 °C3 km/hNO23 km/h16.1 1008 hPa-
20/10/2020 09:5916.1 °C77 %12.2 °C6 km/hONO23 km/h16.1 1007 hPa-
20/10/2020 09:4416.4 °C74 %11.7 °C6 km/hNNO23 km/h16.7 1007 hPa-
20/10/2020 09:2916.5 °C73 %11.7 °C3 km/hONO23 km/h16.7 1007 hPa-
20/10/2020 09:1416.4 °C73 %11.7 °C13 km/hNNO23 km/h16.1 1007 hPa-
20/10/2020 08:5916.3 °C74 %11.7 °C8 km/hONO21 km/h16.1 1007 hPa-
20/10/2020 08:4416.2 °C74 %11.7 °C8 km/hNO21 km/h16.1 1007 hPa-
20/10/2020 08:2915.9 °C75 %11.7 °C13 km/hONO21 km/h15.6 1006 hPa-
20/10/2020 08:1415.7 °C76 %11.7 °C10 km/hONO21 km/h15.0 1006 hPa-
20/10/2020 07:5915.6 °C76 %11.1 °C6 km/hO19 km/h15.6 1007 hPa-
20/10/2020 07:4415.4 °C77 %11.7 °C6 km/hO19 km/h15.6 1007 hPa-
20/10/2020 07:2915.3 °C77 %11.1 °C6 km/hNO19 km/h15.6 1007 hPa-
20/10/2020 07:1415.2 °C77 %11.1 °C5 km/hO19 km/h15.0 1007 hPa-
20/10/2020 06:5915.3 °C77 %11.1 °C5 km/hONO19 km/h15.6 1007 hPa-
20/10/2020 06:4415.3 °C77 %11.1 °C10 km/hNO19 km/h15.0 1007 hPa-
20/10/2020 06:2915.1 °C78 %11.1 °C5 km/hNO19 km/h15.0 1007 hPa-
20/10/2020 06:1414.9 °C78 %11.1 °C3 km/hONO19 km/h15.0 1007 hPa-
20/10/2020 06:0014.9 °C78 %11.1 °C2 km/hNNO19 km/h15.0 1007 hPa-
20/10/2020 05:4514.9 °C78 %11.1 °C3 km/hONO19 km/h15.0 1007 hPa-
20/10/2020 05:3014.8 °C78 %11.1 °C3 km/hONO19 km/h15.0 1007 hPa-
20/10/2020 05:1514.8 °C77 %11.1 °C2 km/hNNO19 km/h15.0 1008 hPa-
20/10/2020 05:0015.0 °C76 %10.6 °C3 km/hNO19 km/h15.0 1008 hPa-
20/10/2020 04:4515.1 °C76 %11.1 °C8 km/hNNO19 km/h15.0 1007 hPa-
20/10/2020 04:3015.1 °C76 %11.1 °C5 km/hO19 km/h15.0 1007 hPa-
20/10/2020 04:1514.9 °C76 %10.6 °C8 km/hNO19 km/h15.0 1008 hPa-
20/10/2020 04:0014.9 °C76 %10.6 °C6 km/hNNO19 km/h15.0 1008 hPa-
20/10/2020 03:4515.0 °C76 %10.6 °C3 km/hNO19 km/h15.0 1008 hPa-
20/10/2020 03:2914.8 °C76 %10.6 °C8 km/hONO19 km/h15.0 1008 hPa-
20/10/2020 03:1414.8 °C76 %10.6 °C6 km/hNO19 km/h15.0 1008 hPa-
20/10/2020 02:5914.7 °C76 %10.6 °C11 km/hNNO19 km/h13.3 1008 hPa-
20/10/2020 02:4414.4 °C77 %10.6 °C3 km/hO18 km/h14.4 1008 hPa-
20/10/2020 02:2914.2 °C78 %10.6 °C6 km/hNNO18 km/h14.4 1008 hPa-
20/10/2020 02:1414.1 °C78 %10.6 °C6 km/hNO14 km/h13.9 1008 hPa-
20/10/2020 01:5913.9 °C78 %10.0 °C10 km/hNO13 km/h13.3 1008 hPa-
20/10/2020 01:4413.9 °C77 %10.0 °C8 km/hNNO13 km/h13.3 1008 hPa-
20/10/2020 01:2913.9 °C77 %10.0 °C2 km/hNO13 km/h13.9 1008 hPa-
20/10/2020 01:1413.8 °C77 %10.0 °C-O13 km/h13.9 1008 hPa-
20/10/2020 00:5913.7 °C78 %10.0 °C5 km/hOSO13 km/h13.9 1008 hPa-
20/10/2020 00:4413.7 °C78 %10.0 °C3 km/hNO13 km/h13.9 1008 hPa-
20/10/2020 00:2913.5 °C78 %10.0 °C2 km/hNO13 km/h13.3 1008 hPa-
20/10/2020 00:1413.4 °C78 %9.4 °C6 km/hO13 km/h13.3 1008 hPa-


Minima :

Température : 13.4 °C
Humidité : 73 %
Point de rosée : 9.4 °C
Vent moyen : 2 km/h
Windchill : 13.3
Pression atm. : 1004 hPa
Maxima :

Température : 17.7 °C
Humidité : 84 %
Point de rosée : 14.4 °C
Vent moyen : 19 km/h
Windchill : 17.8
Pression atm. : 1008 hPa
Rafales max : 26 km/h
Cumul de pluie sur 24H : 0 mm

Les Ormes est une commune du département Vienne (86).
La station météorologique du réseau de l'association la plus proche de Les Ormes est celle de Le Louroux



Icône Facebook Association Météo Centre Icône Twitter Association Météo Centre Icône Chaîne Youtube Association Météo Centre Icône contact Association Météo Centre Icône Insta Association Météo Centre